Terminal Aerodrome Forecast
Issued by NWS Charleston, WV

Current Version | Previous Version | Graphics & Text | Print | Product List | Glossary On
Versions: 1 2 3 4 5 6 7 8 9 10 11 12 13 14 15 16 17 18 19 20 21 22
000
FTUS41 KRLX 160500
TAFCRW
TAF
KCRW 160525Z 1606/1706 VRB03KT P6SM SCT035 BKN045 OVC150
     FM160800 00000KT 5SM BR BKN035 BKN100
     FM161400 00000KT 6SM BR BKN025
     FM161500 00000KT P6SM BKN015
     FM162000 35004KT P6SM BKN025
     FM162200 VRB03KT P6SM SCT040=

USA.gov is the U.S. government's official web portal to all federal, state and local government web resources and services.